Latest Weather Observations for Wagga Wagga

IDN60801

Issued at 1:32 pm EST Friday 6 May 2016 (issued every 30 minutes, with the page automatically refreshed every 10 minutes)

About weather observations | Map of weather stations | Latest weather observations for NSW | Other Formats
Station Details ID: 072150 Name: WAGGA WAGGA AMO Lat: -35.16 Lon: 147.46 Height: 212.0 m
Data from the previous 72 hours. | See also: Recent months at Wagga Wagga
Date/Time
EST
Temp
°C
App
Temp
°C
Dew
Point
Rel
Hum
%
Delta-T
°C
Wind Press
QNH
hPa
Press
MSL
hPa
Rain
since 9 am
mm
Dir
 
Spd
km/h
Gust
km/h
Spd
kts
Gust
kts
06/01:00pm 22.7 21.1 8.7 40 7.5 NW 7 15 4 8 1018.0 1018.1 0.0
06/12:30pm 22.6 20.9 8.3 40 7.6 NNE 7 11 4 6 1018.3 1018.4 0.0
06/12:00pm 21.1 18.9 7.7 42 7.0 NNE 9 17 5 9 1018.9 1019.0 0.0
06/11:30am 20.1 18.3 8.0 45 6.3 ENE 7 13 4 7 1019.5 1019.5 0.0
06/11:00am 18.8 15.6 6.7 45 6.1 ENE 13 17 7 9 1020.0 1020.1 0.0
06/10:30am 17.1 13.4 6.4 49 5.3 E 15 19 8 10 1020.2 1020.3 0.0
06/10:00am 15.9 12.2 6.3 53 4.7 E 15 19 8 10 1020.2 1020.3 0.0
06/09:30am 14.2 10.5 6.4 59 3.8 E 15 19 8 10 1020.4 1020.5 0.0
06/09:00am 12.6 8.9 6.3 65 3.0 E 15 17 8 9 1020.6 1020.7 0.0
06/08:30am 11.3 7.2 6.2 71 2.4 E 17 17 9 9 1020.7 1020.8 0.0
06/08:00am 10.2 6.4 5.9 74 2.0 E 15 17 8 9 1020.6 1020.7 0.0
06/07:30am 9.3 5.5 5.6 78 1.7 E 15 17 8 9 1020.2 1020.3 0.0
06/07:00am 8.6 4.7 5.3 80 1.5 ESE 15 15 8 8 1019.8 1019.9 0.0
06/06:30am 8.6 4.7 5.3 80 1.5 E 15 17 8 9 1019.4 1019.4 0.0
06/06:00am 8.3 4.8 5.4 82 1.3 E 13 15 7 8 1019.3 1019.3 0.0
06/05:30am 8.6 4.7 5.5 81 1.4 E 15 15 8 8 1019.4 1019.4 0.0
06/05:00am 8.9 5.8 5.4 79 1.6 E 11 13 6 7 1019.3 1019.3 0.0
06/04:30am 9.0 5.9 5.5 79 1.6 E 11 13 6 7 1019.1 1019.1 0.0
06/04:00am 9.4 5.9 5.5 76 1.8 E 13 15 7 8 1018.8 1018.9 0.0
06/03:30am 9.5 5.7 5.6 76 1.8 ESE 15 17 8 9 1018.8 1018.9 0.0
06/03:00am 9.8 6.4 5.7 75 1.9 E 13 17 7 9 1018.7 1018.8 0.0
06/02:30am 9.9 6.9 5.8 75 1.9 E 11 15 6 8 1018.9 1019.0 0.0
06/02:00am 10.0 6.6 5.7 74 2.0 E 13 15 7 8 1018.7 1018.8 0.0
06/01:30am 10.3 6.9 5.8 73 2.1 E 13 15 7 8 1018.8 1018.9 0.0
06/01:00am 10.5 7.0 5.5 71 2.3 E 13 13 7 7 1018.8 1018.9 0.0
06/12:30am 10.7 7.6 5.5 70 2.4 ESE 11 13 6 7 1019.1 1019.1 0.0
06/12:00am 10.5 8.2 5.8 72 2.2 E 7 9 4 5 1019.1 1019.1 0.0
 
Date/Time
EST
Temp
°C
App
Temp
°C
Dew
Point
Rel
Hum
%
Delta-T
°C
Wind Press
QNH
hPa
Press
MSL
hPa
Rain
since 9 am
mm
Dir
 
Spd
km/h
Gust
km/h
Spd
kts
Gust
kts
05/11:30pm 11.3 8.2 5.5 67 2.7 E 11 11 6 6 1019.1 1019.1 0.0
05/11:00pm 10.8 8.2 5.9 72 2.3 E 9 11 5 6 1019.1 1019.1 0.0
05/10:30pm 11.8 8.4 5.9 67 2.8 E 13 13 7 7 1019.1 1019.1 0.0
05/10:00pm 12.1 9.0 5.7 65 3.0 E 11 15 6 8 1019.2 1019.2 0.0
05/09:30pm 12.7 9.3 5.7 62 3.3 E 13 13 7 7 1019.2 1019.2 0.0
05/09:00pm 12.9 9.8 5.7 61 3.4 E 11 13 6 7 1019.1 1019.1 0.0
05/08:30pm 13.3 10.6 5.5 59 3.7 E 9 13 5 7 1018.7 1018.8 0.0
05/08:00pm 13.6 10.5 5.6 58 3.8 E 11 11 6 6 1018.6 1018.7 0.0
05/07:30pm 13.6 10.9 5.6 58 3.8 ESE 9 9 5 5 1018.5 1018.6 0.0
05/07:00pm 13.9 11.7 6.0 59 3.8 SSE 7 9 4 5 1018.3 1018.4 0.0
05/06:30pm 15.1 12.8 5.8 53 4.5 SSE 7 9 4 5 1018.1 1018.2 0.0
05/06:00pm 15.9 13.1 5.3 49 5.1 SSE 9 9 5 5 1017.8 1017.9 0.0
05/05:30pm 17.0 14.6 5.2 45 5.7 SSE 7 9 4 5 1017.7 1017.8 0.0
05/05:00pm 18.3 17.2 4.9 41 6.5 CALM 0 0 0 0 1017.7 1017.8 0.0
05/04:30pm 19.4 17.2 5.4 40 6.9 SE 6 9 3 5 1017.7 1017.8 0.0
05/04:00pm 20.1 17.6 4.8 36 7.5 NE 7 11 4 6 1017.7 1017.8 0.0
05/03:30pm 20.2 17.4 5.3 37 7.4 WNW 9 13 5 7 1017.8 1017.9 0.0
05/03:00pm 19.6 16.3 4.3 36 7.4 N 11 15 6 8 1018.0 1018.1 0.0
05/02:30pm 19.5 16.1 4.2 36 7.4 WNW 11 17 6 9 1018.1 1018.2 0.0
05/02:00pm 19.1 15.8 4.4 38 7.1 WSW 11 17 6 9 1018.3 1018.4 0.0
05/01:30pm 19.0 15.2 4.0 37 7.2 NW 13 19 7 10 1018.5 1018.6 0.0
05/01:00pm 19.0 16.4 4.0 37 7.2 NW 7 15 4 8 1018.9 1019.0 0.0
05/12:30pm 18.3 15.7 4.0 38 6.8 WNW 7 11 4 6 1019.4 1019.4 0.0
05/12:00pm 17.9 15.2 3.7 39 6.7 ESE 7 11 4 6 1019.9 1020.0 0.0
05/11:30am 18.1 15.9 5.2 42 6.3 ENE 6 9 3 5 1020.6 1020.7 0.0
05/11:00am 16.0 14.2 5.4 49 5.1 NNE 4 11 2 6 1021.1 1021.2 0.0
05/10:30am 14.6 11.9 5.4 54 4.4 NE 9 13 5 7 1021.4 1021.5 0.0
05/10:00am 13.7 10.8 4.9 55 4.1 ENE 9 15 5 8 1021.5 1021.6 0.0
05/09:30am 11.6 8.5 5.4 65 2.9 E 11 15 6 8 1021.7 1021.8 0.0
05/09:00am 10.2 7.0 4.9 69 2.4 E 11 15 6 8 1021.8 1021.9 0.0
05/08:30am 9.0 5.7 4.5 73 2.0 E 11 13 6 7 1021.6 1021.7 0.0
05/08:00am 8.5 4.8 4.7 77 1.7 ESE 13 15 7 8 1021.4 1021.5 0.0
05/07:30am 7.0 3.6 4.2 82 1.2 ESE 11 13 6 7 1021.1 1021.2 0.0
05/07:00am 6.6 3.2 3.8 82 1.2 E 11 13 6 7 1020.9 1021.0 0.0
05/06:30am 6.1 2.7 3.8 85 1.0 ESE 11 13 6 7 1020.8 1020.9 0.0
05/06:00am 6.5 3.1 3.9 83 1.1 ESE 11 13 6 7 1020.7 1020.8 0.0
05/05:30am 6.6 3.6 4.1 84 1.1 E 9 11 5 6 1020.6 1020.7 0.0
05/05:00am 7.0 3.6 4.0 81 1.3 E 11 11 6 6 1020.5 1020.6 0.0
05/04:30am 7.0 4.0 4.2 82 1.2 E 9 11 5 6 1020.3 1020.4 0.0
05/04:00am 6.7 3.7 4.2 84 1.1 ESE 9 11 5 6 1020.2 1020.3 0.0
05/03:30am 7.3 4.3 4.3 81 1.3 E 9 11 5 6 1020.2 1020.3 0.0
05/03:00am 7.9 4.6 4.5 79 1.5 E 11 13 6 7 1020.3 1020.4 0.0
05/02:30am 7.1 3.4 4.6 84 1.1 ESE 13 13 7 7 1020.4 1020.5 0.0
05/02:00am 8.0 4.7 4.6 79 1.5 ESE 11 11 6 6 1020.6 1020.7 0.0
05/01:30am 7.7 4.4 4.5 80 1.4 ESE 11 13 6 7 1020.6 1020.7 0.0
05/01:00am 8.2 4.9 4.8 79 1.5 ESE 11 11 6 6 1020.7 1020.8 0.0
05/12:30am 7.0 3.8 5.0 87 0.9 E 11 13 6 7 1020.7 1020.8 0.0
05/12:00am 6.8 4.2 4.3 84 1.1 ESE 7 7 4 4 1020.6 1020.7 0.0
 
Date/Time
EST
Temp
°C
App
Temp
°C
Dew
Point
Rel
Hum
%
Delta-T
°C
Wind Press
QNH
hPa
Press
MSL
hPa
Rain
since 9 am
mm
Dir
 
Spd
km/h
Gust
km/h
Spd
kts
Gust
kts
04/11:30pm 8.1 5.3 5.2 82 1.3 E 9 11 5 6 1020.7 1020.8 0.0
04/11:00pm 8.5 4.9 5.2 80 1.5 E 13 13 7 7 1020.6 1020.7 0.0
04/10:30pm 7.1 6.0 5.1 87 0.9 CALM 0 0 0 0 1020.6 1020.7 0.0
04/10:00pm 7.8 6.7 5.1 83 1.2 CALM 0 0 0 0 1020.7 1020.8 0.0
04/09:30pm 8.8 6.6 5.3 79 1.6 E 6 11 3 6 1020.5 1020.6 0.0
04/09:00pm 9.2 6.9 5.0 75 1.9 S 6 7 3 4 1020.2 1020.3 0.0
04/08:30pm 9.9 8.8 5.1 72 2.2 CALM 0 0 0 0 1020.0 1020.1 0.0
04/08:00pm 9.5 6.7 5.3 75 1.9 S 9 9 5 5 1019.6 1019.6 0.0
04/07:30pm 10.5 7.6 4.8 68 2.6 S 9 11 5 6 1019.6 1019.6 0.0
04/07:00pm 10.4 7.2 5.2 70 2.4 S 11 11 6 6 1019.3 1019.3 0.0
04/06:30pm 11.5 8.6 4.5 62 3.2 SSW 9 9 5 5 1018.8 1018.9 0.0
04/06:00pm 12.2 9.3 4.6 59 3.5 WSW 9 9 5 5 1018.4 1018.5 0.0
04/05:30pm 13.7 10.7 4.2 52 4.4 WSW 9 11 5 6 1018.1 1018.2 0.0
04/05:00pm 15.3 11.0 3.3 44 5.5 WSW 15 26 8 14 1017.9 1018.0 0.0
04/04:30pm 16.2 12.2 2.6 40 6.2 W 13 19 7 10 1017.7 1017.8 0.0
04/04:00pm 16.3 11.8 2.4 39 6.3 W 15 19 8 10 1017.4 1017.5 0.0
04/03:30pm 16.8 12.4 2.6 38 6.5 WNW 15 20 8 11 1017.2 1017.3 0.0
04/03:00pm 16.6 12.1 2.3 38 6.5 W 15 24 8 13 1017.1 1017.2 0.0
04/02:30pm 16.1 10.9 2.4 39 6.2 W 19 28 10 15 1017.0 1017.1 0.0
04/02:00pm 16.5 12.6 3.4 41 6.1 WSW 13 20 7 11 1017.0 1017.1 0.0
04/01:30pm 16.5 11.7 2.5 39 6.4 WSW 17 26 9 14 1017.0 1017.1 0.0
04/01:00pm 16.3 11.7 3.9 43 5.8 WSW 17 24 9 13 1017.1 1017.2 0.0
04/12:30pm 15.9 11.0 3.9 44 5.6 W 19 28 10 15 1017.4 1017.5 0.0
04/12:00pm 15.3 10.7 3.9 46 5.3 SW 17 26 9 14 1017.7 1017.8 0.0
04/11:30am 15.3 12.3 5.8 53 4.6 WNW 11 15 6 8 1017.9 1018.0 0.0
04/11:00am 14.5 10.7 5.8 56 4.2 W 15 20 8 11 1018.1 1018.2 0.0
04/10:30am 12.9 9.2 6.2 64 3.2 SW 15 20 8 11 1017.9 1018.0 0.0
04/10:00am 13.5 9.5 6.5 62 3.4 WSW 17 20 9 11 1017.9 1018.0 0.0
04/09:30am 12.9 9.1 7.6 70 2.6 WSW 17 20 9 11 1017.7 1017.8 0.0
04/09:07am 12.2 8.2 8.4 77 1.9 SW 19 22 10 12 1017.7 1017.8 0.0
04/09:00am 12.2 8.2 8.2 76 2.0 SW 19 22 10 12 1017.7 1017.8 0.4
04/08:41am 11.7 7.2 8.5 81 1.6 SW 22 28 12 15 1017.4 1017.5 0.4
04/08:30am 11.4 7.3 8.6 83 1.4 SW 20 24 11 13 1017.3 1017.4 0.4
04/08:00am 11.0 8.8 9.4 90 0.8 WSW 11 17 6 9 1017.0 1017.1 0.4
04/07:30am 10.0 7.7 9.0 93 0.5 W 11 15 6 8 1016.3 1016.4 0.4
04/07:00am 8.8 6.3 8.0 95 0.4 WSW 11 15 6 8 1015.7 1015.7 0.4
04/06:30am 9.9 8.0 8.9 93 0.5 WSW 9 11 5 6 1015.1 1015.1 0.4
04/06:00am 10.3 8.7 8.9 91 0.7 W 7 9 4 5 1014.6 1014.6 0.4
04/05:30am 10.7 8.8 9.1 90 0.8 WNW 9 9 5 5 1013.9 1014.0 0.4
04/05:00am 11.5 10.3 9.7 89 0.9 WSW 6 7 3 4 1013.3 1013.4 0.4
04/04:30am 12.2 10.3 10.5 89 0.9 WSW 11 15 6 8 1013.0 1013.1 0.4
04/04:00am 12.9 10.7 10.8 87 1.1 WSW 13 17 7 9 1012.6 1012.7 0.4
04/03:30am 13.0 9.9 11.5 91 0.8 SW 19 26 10 14 1012.2 1012.3 0.4
04/03:20am 13.4 10.4 11.9 91 0.8 SW 19 28 10 15 1012.2 1012.3 0.4
04/03:13am 13.6 10.0 11.9 89 0.9 WSW 22 32 12 17 1012.2 1012.3 0.4
04/03:00am 13.6 9.8 12.5 93 0.6 WSW 24 33 13 18 1012.1 1012.2 0.4
04/02:58am 13.7 10.0 12.6 93 0.6 W 24 33 13 18 1012.0 1012.1 0.4
04/02:40am 14.1 10.6 12.3 89 1.0 W 22 32 12 17 1011.8 1011.8 0.4
04/02:30am 13.9 11.8 12.3 90 0.9 W 15 19 8 10 1011.7 1011.7 0.4
04/02:00am 13.6 11.6 11.4 86 1.2 NW 13 15 7 8 1011.3 1011.3 0.4
04/01:54am 13.6 11.7 11.8 89 1.0 NW 13 19 7 10 1011.4 1011.4 0.4
04/01:40am 14.0 11.7 11.8 86 1.2 WNW 15 20 8 11 1011.5 1011.5 0.4
04/01:30am 14.6 12.5 11.1 79 1.9 WNW 13 15 7 8 1011.4 1011.4 0.0
04/01:00am 14.7 13.3 9.5 71 2.7 WNW 7 9 4 5 1011.2 1011.2 0.0
04/12:30am 15.5 13.7 9.4 67 3.2 W 9 11 5 6 1010.9 1010.9 0.0
04/12:00am 15.3 13.0 7.5 59 3.9 WSW 9 11 5 6 1011.0 1011.0 0.0
 
Date/Time
EST
Temp
°C
App
Temp
°C
Dew
Point
Rel
Hum
%
Delta-T
°C
Wind Press
QNH
hPa
Press
MSL
hPa
Rain
since 9 am
mm
Dir
 
Spd
km/h
Gust
km/h
Spd
kts
Gust
kts
03/11:30pm 15.9 12.5 5.9 51 4.9 WNW 13 15 7 8 1011.0 1011.0 0.0
03/11:00pm 16.5 12.1 4.6 45 5.7 WNW 17 19 9 10 1010.8 1010.8 0.0
03/10:30pm 17.3 12.3 3.7 40 6.4 WNW 19 26 10 14 1010.8 1010.8 0.0
03/10:00pm 17.1 12.1 3.7 41 6.3 NW 19 28 10 15 1010.7 1010.7 0.0
03/09:30pm 17.1 12.1 3.4 40 6.4 NW 19 28 10 15 1010.4 1010.4 0.0
03/09:00pm 17.2 12.1 3.3 39 6.5 NW 19 24 10 13 1010.3 1010.3 0.0
03/08:30pm 17.1 12.5 3.5 40 6.4 NW 17 24 9 13 1010.0 1010.0 0.0
03/08:00pm 16.7 12.9 4.0 43 6.0 NNW 13 17 7 9 1009.8 1009.8 0.0
03/07:30pm 16.8 12.6 3.6 41 6.2 NNW 15 20 8 11 1009.6 1009.6 0.0
03/07:00pm 17.2 12.9 3.3 39 6.5 NW 15 17 8 9 1009.3 1009.3 0.0
03/06:30pm 17.4 13.2 3.6 40 6.5 NW 15 19 8 10 1009.0 1009.1 0.0
03/06:00pm 17.9 13.2 3.2 37 6.9 WNW 17 20 9 11 1008.5 1008.6 0.0
03/05:30pm 18.5 13.2 3.0 35 7.3 WNW 20 26 11 14 1008.0 1008.1 0.0
03/05:00pm 19.8 13.2 2.0 30 8.3 NW 26 35 14 19 1007.6 1007.6 0.0
03/04:30pm 20.5 13.5 1.9 29 8.7 NW 28 35 15 19 1007.4 1007.4 0.0
03/04:00pm 20.8 13.3 1.4 27 9.0 NW 30 46 16 25 1007.4 1007.4 0.0
03/03:30pm 20.9 13.4 1.2 27 9.1 NW 30 48 16 26 1007.7 1007.7 0.0
03/03:00pm 21.6 13.8 1.5 26 9.4 NW 32 - 17 - 1007.8 1007.7 0.0
03/02:30pm 21.2 12.4 1.4 27 9.2 NW 37 50 20 27 1008.0 1008.1 0.0
03/02:00pm 21.0 12.5 0.7 26 9.3 NW 35 50 19 27 1008.2 1008.3 0.0

Other Formats:

Comma delimited format used in spreadsheet applications
http://www.bom.gov.au/fwo/IDN60801/IDN60801.94910.axf

JavaScript Object Notation format (JSON) in row-major order
http://www.bom.gov.au/fwo/IDN60801/IDN60801.94910.json